ローマ/フィウミチーノ の空港の天気 - METARとTAF

ローマ・レオナルド・ダ・ビンチ国際空港 ( LIRF / FCO ) - イタリア ローマ
飛行場実況気象(Metar)
観測時間06/17 21:20 CEST (06/17 19:20 UTC)
風向・風速北西 2m/s
視程10km以上
天気現象
なし
気温21℃
湿度94%
気圧1013hPa
METARLIRF 171920Z 32004KT CAVOK 21/20 Q1013 NOSIG
過去の天気等 Google飛行場航空写真 Wunderground天気予報

過去48時間のMETAR

飛行場予報(TAF)
発表時間: 6/13 01:00 CEST (6/12 23:00 UTC)
予報対象時間: 13日2時 CEST ~ 14日8時 CEST
風向・風速不定 3m/s
視程10km以上
なし
13日4時 CEST ~ 13日7時 CEST に一時的に
視程3000m
天気現象もや
13日10時 CEST ~ 13日12時 CEST に徐々に
風向・風速西南西 5m/s
13日19時 CEST ~ 13日21時 CEST に徐々に
風向・風速北北東 3m/s
TAF LIRF 122300Z 1300/1406 VRB05KT CAVOK
TEMPO 1302/1305 3000 BR
BECMG 1308/1310 25010KT
BECMG 1317/1319 02006KT